Time;durP1;ratioP1;P1;durP2;ratioP2;P2;SDS_P1;SDS_P2;PMS_P1;PMS_P2;Temp;Humidity;BMP_temperature;BMP_pressure;BME280_temperature;BME280_humidity;BME280_pressure;Samples;Min_cycle;Max_cycle;Signal;HPM_P1;HPM_P2
2022/06/04 00:00:18;;;;;;;14.80;4.68;;;15.00;90.30;;;;;;5110854;28;20058;-60
2022/06/04 00:02:45;;;;;;;18.20;4.80;;;15.00;90.30;;;;;;5113585;28;20023;-60
2022/06/04 00:05:13;;;;;;;24.45;4.90;;;15.00;90.50;;;;;;5113563;28;20024;-59
2022/06/04 00:07:39;;;;;;;16.63;4.60;;;15.00;90.30;;;;;;5113290;28;20480;-57
2022/06/04 00:15:45;;;;;;;15.95;5.18;;;15.00;90.50;;;;;;5113615;28;20040;-60
2022/06/04 00:18:10;;;;;;;19.85;4.97;;;14.90;90.40;;;;;;5080757;28;20034;-45
2022/06/04 00:20:37;;;;;;;24.88;5.18;;;14.90;90.50;;;;;;5110138;28;20024;-58
2022/06/04 00:23:04;;;;;;;19.27;5.55;;;14.90;90.50;;;;;;5108838;28;20529;-49
2022/06/04 00:25:31;;;;;;;19.75;5.35;;;14.90;90.50;;;;;;5113291;28;20058;-56
2022/06/04 00:28:03;;;;;;;17.63;5.20;;;14.90;90.60;;;;;;5094407;28;20543;-47
2022/06/04 00:30:29;;;;;;;22.77;5.50;;;14.90;90.70;;;;;;5112795;28;20388;-59
2022/06/04 00:32:55;;;;;;;22.63;5.88;;;14.90;90.70;;;;;;5112967;28;20066;-56
2022/06/04 00:35:22;;;;;;;18.13;5.20;;;14.90;90.70;;;;;;5112788;28;20543;-62
2022/06/04 00:37:49;;;;;;;21.95;5.28;;;14.90;90.70;;;;;;5102833;28;20742;-60
2022/06/04 00:40:31;;;;;;;19.95;5.15;;;14.90;90.70;;;;;;5110048;28;20110;-54
2022/06/04 00:42:58;;;;;;;16.60;4.80;;;14.90;90.70;;;;;;5112791;28;20023;-55
2022/06/04 00:45:32;;;;;;;19.60;5.07;;;14.90;90.80;;;;;;5112795;28;20065;-59
2022/06/04 00:48:04;;;;;;;17.65;4.70;;;14.90;90.90;;;;;;5089476;28;20023;-56
2022/06/04 00:50:32;;;;;;;18.55;4.60;;;14.90;90.90;;;;;;5112486;28;20153;-59
2022/06/04 00:53:01;;;;;;;18.88;5.20;;;14.90;91.00;;;;;;5111569;28;20064;-58
2022/06/04 00:55:35;;;;;;;;;;;14.80;91.00;;;;;;5112669;28;20096;-56
2022/06/04 00:58:51;;;;;;;22.35;5.05;;;14.90;91.10;;;;;;5104035;28;20303;-59
2022/06/04 01:01:27;;;;;;;27.77;6.05;;;14.90;91.10;;;;;;5066784;28;20548;-52
2022/06/04 01:04:04;;;;;;;18.85;5.60;;;14.90;91.20;;;;;;5096747;28;20107;-56
2022/06/04 01:06:52;;;;;;;18.23;6.00;;;14.90;91.20;;;;;;5091729;28;20024;-44
2022/06/04 01:09:37;;;;;;;18.73;5.47;;;14.90;91.10;;;;;;5077572;28;20020;-58
2022/06/04 01:12:37;;;;;;;22.10;5.07;;;14.90;91.30;;;;;;5098336;28;20020;-60
2022/06/04 01:15:12;;;;;;;25.77;5.97;;;14.90;91.30;;;;;;5102434;28;20480;-57
2022/06/04 01:18:00;;;;;;;20.45;5.07;;;14.90;91.30;;;;;;5111953;28;20031;-60
2022/06/04 01:20:48;;;;;;;24.83;6.18;;;14.80;91.40;;;;;;5112107;28;20051;-60
2022/06/04 01:23:36;;;;;;;24.63;5.38;;;14.80;91.40;;;;;;5104965;28;20153;-60
2022/06/04 01:26:01;;;;;;;22.15;5.22;;;14.80;91.40;;;;;;5093276;28;20031;-60
2022/06/04 01:28:29;;;;;;;18.95;4.93;;;14.80;91.50;;;;;;5111871;28;20115;-60
2022/06/04 01:31:00;;;;;;;18.90;5.47;;;14.80;91.50;;;;;;5111679;28;20060;-59
2022/06/04 01:33:41;;;;;;;18.45;4.90;;;14.80;91.50;;;;;;5104164;28;20055;-60
2022/06/04 01:36:32;;;;;;;22.17;5.03;;;14.80;91.60;;;;;;5112133;28;20024;-61
2022/06/04 01:39:07;;;;;;;24.27;6.18;;;14.80;91.60;;;;;;5100825;28;20036;-55
2022/06/04 01:41:39;;;;;;;19.83;5.13;;;14.90;91.70;;;;;;5109444;28;20020;-41
2022/06/04 01:44:13;;;;;;;20.58;5.32;;;14.90;91.60;;;;;;5111718;28;20041;-41
2022/06/04 01:46:52;;;;;;;18.85;5.32;;;14.90;91.80;;;;;;5111460;28;20016;-41
2022/06/04 01:49:26;;;;;;;22.73;5.22;;;14.90;91.70;;;;;;5111378;28;20480;-41
2022/06/04 01:51:56;;;;;;;23.15;5.32;;;14.80;91.60;;;;;;5111382;28;20032;-40
2022/06/04 01:54:33;;;;;;;17.95;5.68;;;14.90;91.70;;;;;;5111395;28;20020;-42
2022/06/04 01:57:07;;;;;;;23.52;4.85;;;14.80;91.80;;;;;;5111078;28;20043;-40
2022/06/04 01:59:51;;;;;;;20.73;4.88;;;14.80;91.70;;;;;;5111241;28;20031;-41
2022/06/04 02:02:24;;;;;;;20.40;5.35;;;14.80;91.80;;;;;;5094019;28;20069;-42
2022/06/04 02:04:54;;;;;;;23.95;4.90;;;14.80;91.80;;;;;;5105845;28;20032;-43
2022/06/04 02:07:32;;;;;;;21.23;5.15;;;14.80;91.70;;;;;;5111363;28;20468;-60
2022/06/04 02:10:28;;;;;;;22.05;5.20;;;14.80;91.70;;;;;;5104640;28;20122;-59
2022/06/04 02:12:57;;;;;;;22.38;4.78;;;14.80;91.70;;;;;;5096677;28;20108;-59
2022/06/04 02:15:36;;;;;;;15.27;4.40;;;14.80;91.80;;;;;;5106565;28;20023;-61
2022/06/04 02:18:04;;;;;;;23.50;5.65;;;14.80;92.10;;;;;;5112872;28;20040;-60
2022/06/04 02:20:30;;;;;;;26.33;5.53;;;14.80;92.10;;;;;;5115386;28;20023;-60
2022/06/04 02:22:56;;;;;;;22.38;5.95;;;14.80;92.50;;;;;;5115434;28;20024;-45
2022/06/04 02:25:22;;;;;;;17.63;5.70;;;14.70;92.30;;;;;;5109592;28;20427;-42
2022/06/04 02:27:49;;;;;;;22.50;5.38;;;14.60;92.70;;;;;;5114967;28;20403;-41
2022/06/04 02:30:15;;;;;;;17.25;5.32;;;14.60;92.80;;;;;;5115383;28;20023;-51
2022/06/04 02:33:00;;;;;;;19.95;5.28;;;14.60;92.90;;;;;;5115197;28;20023;-49
2022/06/04 02:35:35;;;;;;;21.95;5.50;;;14.60;92.80;;;;;;5115133;28;20027;-61
2022/06/04 02:38:11;;;;;;;20.75;5.93;;;14.50;92.80;;;;;;5115291;28;20100;-57
2022/06/04 02:41:04;;;;;;;18.08;5.72;;;14.50;92.80;;;;;;5115276;28;20030;-58
2022/06/04 02:43:54;;;;;;;20.23;5.40;;;14.50;92.80;;;;;;5103599;28;20059;-53
2022/06/04 02:46:41;;;;;;;23.55;6.13;;;14.50;92.90;;;;;;5115134;28;20016;-57
2022/06/04 02:49:29;;;;;;;19.85;5.90;;;14.50;92.70;;;;;;5115171;28;20107;-57
2022/06/04 02:51:56;;;;;;;19.55;6.18;;;14.60;92.50;;;;;;5103694;28;20031;-55
2022/06/04 02:54:33;;;;;;;17.50;5.80;;;14.50;92.60;;;;;;5114851;28;20070;-49
2022/06/04 02:57:02;;;;;;;18.55;5.25;;;14.60;92.50;;;;;;5114814;28;20104;-57
2022/06/04 02:59:29;;;;;;;20.90;5.60;;;14.60;92.30;;;;;;5114723;28;20044;-44
2022/06/04 03:02:00;;;;;;;27.02;6.40;;;14.50;92.40;;;;;;5114871;28;20024;-61
2022/06/04 03:04:26;;;;;;;19.35;5.78;;;14.50;92.30;;;;;;5114725;28;20035;-53
2022/06/04 03:06:52;;;;;;;19.00;5.38;;;14.50;92.20;;;;;;5114540;28;20026;-59
2022/06/04 03:09:19;;;;;;;22.45;5.82;;;14.50;92.30;;;;;;5114778;28;20106;-52
2022/06/04 03:11:48;;;;;;;25.33;6.10;;;14.50;92.30;;;;;;5114547;28;20023;-54
2022/06/04 03:14:17;;;;;;;22.67;5.95;;;14.60;92.30;;;;;;5100193;28;20020;-57
2022/06/04 03:16:46;;;;;;;19.55;6.38;;;14.50;92.30;;;;;;5114515;28;20460;-60
2022/06/04 03:19:12;;;;;;;16.17;5.53;;;14.60;92.30;;;;;;5114137;28;20433;-56
2022/06/04 03:21:39;;;;;;;17.60;5.78;;;14.50;92.10;;;;;;5107283;28;20503;-54
2022/06/04 03:24:06;;;;;;;17.52;5.38;;;14.50;92.20;;;;;;5114242;28;20023;-58
2022/06/04 03:26:32;;;;;;;26.35;5.68;;;14.50;92.10;;;;;;5114205;28;20024;-54
2022/06/04 03:28:58;;;;;;;19.10;5.78;;;14.50;92.00;;;;;;5113128;28;20034;-60
2022/06/04 03:31:26;;;;;;;24.35;6.80;;;14.50;92.00;;;;;;5113832;28;20038;-55
2022/06/04 03:33:53;;;;;;;22.17;5.88;;;14.50;92.10;;;;;;5114155;28;20019;-61
2022/06/04 03:36:19;;;;;;;23.85;6.50;;;14.50;91.80;;;;;;5113917;28;20027;-53
2022/06/04 03:38:44;;;;;;;15.50;5.70;;;14.50;91.90;;;;;;5114023;28;20168;-61
2022/06/04 03:41:11;;;;;;;18.65;5.93;;;14.50;91.90;;;;;;5113706;28;20026;-47
2022/06/04 03:43:36;;;;;;;18.10;5.93;;;14.50;92.20;;;;;;5114056;28;20055;-54
2022/06/04 03:46:02;;;;;;;20.30;6.22;;;14.50;92.40;;;;;;5113856;28;20426;-50
2022/06/04 03:48:28;;;;;;;20.08;5.70;;;14.50;92.50;;;;;;5113641;28;20020;-59
2022/06/04 03:50:53;;;;;;;19.40;6.47;;;14.50;92.70;;;;;;5106688;28;20476;-58
2022/06/04 03:53:19;;;;;;;18.92;6.25;;;14.50;93.00;;;;;;5113494;28;20458;-58
2022/06/04 03:55:44;;;;;;;25.55;6.93;;;14.40;93.00;;;;;;5113624;28;20115;-60
2022/06/04 03:58:10;;;;;;;18.00;6.32;;;14.40;93.40;;;;;;5113503;28;20130;-53
2022/06/04 04:00:38;;;;;;;21.08;6.72;;;14.30;93.40;;;;;;5095266;28;20045;-50
2022/06/04 04:03:09;;;;;;;19.63;6.75;;;14.30;93.60;;;;;;5113684;28;20070;-58
2022/06/04 04:05:40;;;;;;;24.83;7.57;;;14.30;93.80;;;;;;5113330;28;20384;-60
2022/06/04 04:08:08;;;;;;;21.60;6.60;;;14.20;93.90;;;;;;5110356;28;20403;-56
2022/06/04 04:10:36;;;;;;;17.92;6.82;;;14.20;94.00;;;;;;5092908;28;20024;-60
2022/06/04 04:13:02;;;;;;;21.90;7.50;;;14.10;94.00;;;;;;5092941;28;20054;-58
2022/06/04 04:15:28;;;;;;;25.27;7.18;;;14.10;94.00;;;;;;5109166;28;20062;-59
2022/06/04 04:17:54;;;;;;;23.80;7.47;;;14.10;94.10;;;;;;5113314;28;20032;-57
2022/06/04 04:20:24;;;;;;;16.00;7.22;;;14.20;94.20;;;;;;5110594;28;20024;-53
2022/06/04 04:22:50;;;;;;;22.30;7.20;;;14.10;94.00;;;;;;5113260;28;20039;-57
2022/06/04 04:25:18;;;;;;;21.35;7.25;;;14.10;94.00;;;;;;5113133;28;20038;-54
2022/06/04 04:27:45;;;;;;;23.30;7.10;;;14.10;94.00;;;;;;5113049;28;20027;-55
2022/06/04 04:30:14;;;;;;;25.75;7.90;;;14.20;93.90;;;;;;5112984;28;20100;-60
2022/06/04 04:32:41;;;;;;;22.48;7.40;;;14.10;93.80;;;;;;5112848;28;20016;-57
2022/06/04 04:35:09;;;;;;;21.90;7.18;;;14.10;93.70;;;;;;5113143;28;20110;-62
2022/06/04 04:37:35;;;;;;;21.75;7.38;;;14.10;93.70;;;;;;5112846;28;20096;-58
2022/06/04 04:40:00;;;;;;;25.08;7.13;;;14.10;93.30;;;;;;5112702;28;20473;-59
2022/06/04 04:42:26;;;;;;;21.95;6.90;;;14.10;93.60;;;;;;5112504;28;20111;-45
2022/06/04 04:44:52;;;;;;;20.55;6.90;;;14.10;93.60;;;;;;5098434;28;20027;-57
2022/06/04 04:47:17;;;;;;;25.63;7.80;;;14.10;93.70;;;;;;5112765;28;20589;-62
2022/06/04 04:49:43;;;;;;;18.45;7.25;;;14.20;93.50;;;;;;5108822;28;20047;-60
2022/06/04 04:52:09;;;;;;;19.00;6.45;;;14.20;93.40;;;;;;5080576;28;20060;-57
2022/06/04 04:54:35;;;;;;;21.65;6.90;;;14.10;93.40;;;;;;5099909;28;20492;-59
2022/06/04 04:57:01;;;;;;;18.35;6.65;;;14.10;93.50;;;;;;5092323;28;20059;-56
2022/06/04 04:59:27;;;;;;;17.30;6.53;;;14.20;93.50;;;;;;5097965;28;20071;-57
2022/06/04 05:01:52;;;;;;;20.08;5.80;;;14.20;93.40;;;;;;5091927;28;20553;-54
2022/06/04 05:04:19;;;;;;;20.83;6.25;;;14.20;93.20;;;;;;5091991;28;20107;-60
2022/06/04 05:06:44;;;;;;;19.00;6.20;;;14.20;93.40;;;;;;5091925;28;20024;-60
2022/06/04 05:09:11;;;;;;;19.38;6.85;;;14.20;93.40;;;;;;5101175;28;20365;-58
2022/06/04 05:11:37;;;;;;;23.42;6.20;;;14.20;93.40;;;;;;5112154;28;20023;-59
2022/06/04 05:14:04;;;;;;;19.08;6.47;;;14.20;93.50;;;;;;5104821;28;20024;-59
2022/06/04 05:16:33;;;;;;;22.67;6.70;;;14.20;93.40;;;;;;5112006;28;20373;-57
2022/06/04 05:19:01;;;;;;;25.77;6.97;;;14.10;93.10;;;;;;5112027;28;20028;-45
2022/06/04 05:21:46;;;;;;;24.65;7.85;;;14.10;93.50;;;;;;5107603;28;20024;-60
2022/06/04 05:24:28;;;;;;;21.23;6.97;;;14.10;94.90;;;;;;5111992;28;20492;-51
2022/06/04 05:26:54;;;;;;;18.15;6.78;;;14.00;94.60;;;;;;5109911;28;20094;-59
2022/06/04 05:29:22;;;;;;;19.50;6.88;;;14.10;95.10;;;;;;5112059;28;20030;-57
2022/06/04 05:31:48;;;;;;;20.45;6.63;;;14.00;95.50;;;;;;5111744;28;20019;-59
2022/06/04 05:34:16;;;;;;;22.20;7.10;;;14.00;95.30;;;;;;5111714;28;20428;-55
2022/06/04 05:36:43;;;;;;;16.70;7.30;;;14.00;95.70;;;;;;5111690;28;20058;-57
2022/06/04 05:39:10;;;;;;;21.83;6.72;;;14.00;95.50;;;;;;5111703;28;20031;-57
2022/06/04 05:41:36;;;;;;;23.13;7.50;;;14.00;95.70;;;;;;5109782;28;20100;-61
2022/06/04 05:44:03;;;;;;;20.83;7.68;;;14.00;96.20;;;;;;5097479;28;20024;-60
2022/06/04 05:46:28;;;;;;;20.88;7.57;;;13.90;96.00;;;;;;5102025;28;20073;-58
2022/06/04 05:48:54;;;;;;;20.63;7.55;;;13.90;96.00;;;;;;5100970;28;20032;-57
2022/06/04 05:51:23;;;;;;;24.50;7.32;;;13.90;95.80;;;;;;5102530;28;20495;-45
2022/06/04 05:53:49;;;;;;;21.17;8.23;;;13.90;96.10;;;;;;5097024;28;20032;-61
2022/06/04 05:56:29;;;;;;;22.25;8.13;;;13.90;96.20;;;;;;5099533;28;20051;-54
2022/06/04 05:58:57;;;;;;;28.88;8.38;;;13.90;96.20;;;;;;5103587;28;20038;-59
2022/06/04 06:01:24;;;;;;;20.00;7.88;;;13.80;96.20;;;;;;5094973;28;20024;-58
2022/06/04 06:03:50;;;;;;;26.42;8.07;;;13.80;96.30;;;;;;5099959;28;20026;-59
2022/06/04 06:06:19;;;;;;;19.30;8.02;;;13.80;96.30;;;;;;5091531;28;20024;-50
2022/06/04 06:08:46;;;;;;;23.65;8.63;;;13.80;96.50;;;;;;5092860;28;20656;-58
2022/06/04 06:11:14;;;;;;;20.08;7.72;;;13.70;96.70;;;;;;5091804;28;20032;-58
2022/06/04 06:13:41;;;;;;;18.88;8.52;;;13.70;96.60;;;;;;5091970;28;20541;-58
2022/06/04 06:16:08;;;;;;;22.20;8.80;;;13.70;97.10;;;;;;5102334;28;20016;-57
2022/06/04 06:18:34;;;;;;;25.33;9.77;;;13.70;97.10;;;;;;5092901;28;20119;-60
2022/06/04 06:21:16;;;;;;;21.90;8.95;;;13.70;97.30;;;;;;5093340;28;20024;-46
2022/06/04 06:23:43;;;;;;;23.42;9.25;;;13.70;97.20;;;;;;5090369;28;20114;-53
2022/06/04 06:26:12;;;;;;;21.15;8.70;;;13.70;97.20;;;;;;5098648;28;20024;-60
2022/06/04 06:28:40;;;;;;;22.88;8.93;;;13.70;97.10;;;;;;5090372;28;20024;-54
2022/06/04 06:31:06;;;;;;;21.90;7.90;;;13.70;97.50;;;;;;5091625;28;20031;-58
2022/06/04 06:33:33;;;;;;;21.58;8.32;;;13.70;97.40;;;;;;5093690;28;20063;-49
2022/06/04 06:36:01;;;;;;;22.15;9.25;;;13.80;97.20;;;;;;5094419;28;20036;-61
2022/06/04 06:38:27;;;;;;;24.00;8.93;;;13.80;97.00;;;;;;5090471;28;20028;-57
2022/06/04 06:40:55;;;;;;;24.92;9.20;;;13.90;97.20;;;;;;5084401;28;20051;-62
2022/06/04 06:43:21;;;;;;;23.05;8.90;;;13.90;97.20;;;;;;5102277;28;20119;-44
2022/06/04 06:45:48;;;;;;;23.65;8.75;;;13.90;97.10;;;;;;5101893;28;20027;-46
2022/06/04 06:48:14;;;;;;;25.60;8.50;;;13.90;96.80;;;;;;5107844;28;20020;-46
2022/06/04 06:50:40;;;;;;;26.15;8.43;;;14.00;96.80;;;;;;5093633;28;20534;-47
2022/06/04 06:53:06;;;;;;;23.63;8.70;;;14.00;96.90;;;;;;5102525;28;20042;-41
2022/06/04 06:55:31;;;;;;;21.50;9.32;;;14.00;97.20;;;;;;5100208;28;20478;-55
2022/06/04 06:57:57;;;;;;;23.80;8.52;;;14.00;96.60;;;;;;5101119;28;20444;-52
2022/06/04 07:00:24;;;;;;;24.63;8.68;;;14.10;96.70;;;;;;5096899;28;20104;-62
2022/06/04 07:02:49;;;;;;;22.20;8.27;;;14.00;96.40;;;;;;5106050;28;20031;-55
2022/06/04 07:05:15;;;;;;;24.20;9.18;;;14.00;96.70;;;;;;5104127;28;20032;-57
2022/06/04 07:07:42;;;;;;;21.13;8.10;;;14.10;96.80;;;;;;5079169;28;20069;-61
2022/06/04 07:10:09;;;;;;;26.80;8.88;;;14.10;96.50;;;;;;5099851;28;20032;-48
2022/06/04 07:12:35;;;;;;;26.23;7.28;;;14.10;96.10;;;;;;5094176;28;20118;-46
2022/06/04 07:15:01;;;;;;;19.98;7.82;;;14.00;96.30;;;;;;5105644;28;20051;-48
2022/06/04 07:17:27;;;;;;;20.70;7.72;;;14.00;96.50;;;;;;5101895;28;20024;-54
2022/06/04 07:19:52;;;;;;;19.65;7.30;;;14.00;96.40;;;;;;5093040;28;20016;-55
2022/06/04 07:22:18;;;;;;;24.73;8.07;;;14.00;96.30;;;;;;5093662;28;20031;-56
2022/06/04 07:24:44;;;;;;;19.98;8.40;;;14.00;96.60;;;;;;5093793;28;20031;-55
2022/06/04 07:27:10;;;;;;;28.85;8.68;;;14.00;96.70;;;;;;5093487;28;20024;-59
2022/06/04 07:29:36;;;;;;;23.95;8.27;;;14.00;96.80;;;;;;5093561;28;20024;-58
2022/06/04 07:32:04;;;;;;;22.27;8.00;;;13.90;96.90;;;;;;5093535;28;20016;-63
2022/06/04 07:34:30;;;;;;;22.25;8.02;;;14.00;97.20;;;;;;5093282;28;20059;-58
2022/06/04 07:36:56;;;;;;;22.73;8.57;;;14.00;96.40;;;;;;5096113;28;20028;-60
2022/06/04 07:39:22;;;;;;;20.17;7.63;;;14.20;96.90;;;;;;5096669;28;20031;-60
2022/06/04 07:41:52;;;;;;;30.02;8.75;;;14.20;96.00;;;;;;5094528;28;20402;-55
2022/06/04 07:44:20;;;;;;;26.25;8.15;;;14.30;96.80;;;;;;5098143;28;20059;-55
2022/06/04 07:46:46;;;;;;;23.27;8.13;;;14.30;96.00;;;;;;5094191;28;20380;-53
2022/06/04 07:49:13;;;;;;;21.65;8.02;;;14.40;96.50;;;;;;5099788;28;20103;-58
2022/06/04 07:51:40;;;;;;;28.05;8.63;;;14.50;96.50;;;;;;5092977;28;20028;-49
2022/06/04 07:54:08;;;;;;;23.90;7.68;;;14.60;96.60;;;;;;5101199;28;20439;-53
2022/06/04 07:56:36;;;;;;;21.13;8.25;;;14.50;95.60;;;;;;5092880;28;20123;-53
2022/06/04 07:59:03;;;;;;;24.00;9.05;;;14.60;96.40;;;;;;5093091;28;20063;-53
2022/06/04 08:01:29;;;;;;;16.48;6.68;;;15.00;97.20;;;;;;5093196;28;20055;-57
2022/06/04 08:03:55;;;;;;;23.90;7.88;;;15.70;95.20;;;;;;5093478;28;20472;-50
2022/06/04 08:06:23;;;;;;;20.60;7.32;;;16.50;95.80;;;;;;5092959;28;20028;-58
2022/06/04 08:08:51;;;;;;;22.58;6.43;;;17.40;93.70;;;;;;5093485;28;20115;-44
2022/06/04 08:11:30;;;;;;;16.92;5.43;;;17.90;90.80;;;;;;5113597;28;20027;-55
2022/06/04 08:14:03;;;;;;;15.50;5.57;;;18.10;84.90;;;;;;5104760;28;20076;-60
2022/06/04 08:16:28;;;;;;;17.13;5.43;;;18.40;85.40;;;;;;5112440;28;20453;-57
2022/06/04 08:18:54;;;;;;;19.60;4.93;;;18.40;84.40;;;;;;5113307;28;20070;-57
2022/06/04 08:21:20;;;;;;;21.60;5.70;;;18.40;85.80;;;;;;5112981;28;20412;-46
2022/06/04 08:23:46;;;;;;;15.82;5.10;;;18.60;86.40;;;;;;5102698;28;20076;-60
2022/06/04 08:26:12;;;;;;;19.73;6.35;;;18.50;85.80;;;;;;5113105;28;20016;-56
2022/06/04 08:28:38;;;;;;;20.63;5.45;;;18.30;88.30;;;;;;5112909;28;20024;-63
2022/06/04 08:31:07;;;;;;;21.27;5.63;;;18.00;84.00;;;;;;5094618;28;20115;-52
2022/06/04 08:33:33;;;;;;;18.67;5.70;;;18.60;89.70;;;;;;5108521;28;20023;-58
2022/06/04 08:35:59;;;;;;;14.75;5.20;;;18.80;84.20;;;;;;5112828;28;20072;-55
2022/06/04 08:38:24;;;;;;;17.83;5.50;;;18.40;84.00;;;;;;5112941;28;20039;-60
2022/06/04 08:40:59;;;;;;;23.48;5.47;;;18.50;86.30;;;;;;5112891;28;20391;-55
2022/06/04 08:43:51;;;;;;;21.40;5.18;;;18.80;84.20;;;;;;5106194;28;20076;-58
2022/06/04 08:46:39;;;;;;;17.35;5.30;;;19.00;81.90;;;;;;5112477;28;20077;-62
2022/06/04 08:49:14;;;;;;;18.55;6.18;;;19.30;80.10;;;;;;5112530;28;20020;-62
2022/06/04 08:51:43;;;;;;;14.90;5.15;;;19.40;85.90;;;;;;5111791;28;20032;-59
2022/06/04 09:00:07;;;;;;;17.85;6.25;;;19.50;80.10;;;;;;5112118;28;20027;-62
2022/06/04 09:03:05;;;;;;;20.42;5.28;;;19.20;80.80;;;;;;5104294;28;20534;-57
2022/06/04 09:05:51;;;;;;;18.40;5.80;;;18.50;78.80;;;;;;5100837;28;20522;-60
2022/06/04 09:08:43;;;;;;;15.75;6.47;;;18.10;82.20;;;;;;5112249;28;20035;-53
2022/06/04 09:11:17;;;;;;;16.23;5.60;;;18.10;82.00;;;;;;5111779;28;20032;-54
2022/06/04 09:14:00;;;;;;;17.08;5.68;;;17.80;82.50;;;;;;5095213;28;20469;-42
2022/06/04 09:16:33;;;;;;;16.27;5.57;;;17.40;84.30;;;;;;5112177;28;20111;-43
2022/06/04 09:19:02;;;;;;;27.73;7.10;;;17.30;83.40;;;;;;5111964;28;20487;-42
2022/06/04 09:21:35;;;;;;;17.92;6.57;;;17.20;84.50;;;;;;5111972;28;20115;-42
2022/06/04 09:24:01;;;;;;;21.75;5.65;;;17.20;85.10;;;;;;5108290;28;20427;-41
2022/06/04 09:26:35;;;;;;;21.23;5.90;;;17.30;87.70;;;;;;5112135;28;20016;-42
2022/06/04 09:29:37;;;;;;;19.52;6.78;;;17.10;84.50;;;;;;5111737;28;20020;-43
2022/06/04 09:32:06;;;;;;;24.55;6.07;;;17.00;87.40;;;;;;5107672;28;20017;-42
2022/06/04 09:34:41;;;;;;;19.80;6.28;;;17.10;88.00;;;;;;5110438;28;20471;-43
2022/06/04 09:37:10;;;;;;;14.27;6.32;;;17.10;86.50;;;;;;5111970;28;20035;-46
2022/06/04 09:39:38;;;;;;;17.92;7.45;;;17.20;88.10;;;;;;5110953;28;20118;-55
2022/06/04 09:42:15;;;;;;;19.23;5.68;;;17.20;88.00;;;;;;5108051;28;20111;-52
2022/06/04 09:45:02;;;;;;;23.35;7.03;;;17.70;83.50;;;;;;5110162;28;20024;-57
2022/06/04 09:47:40;;;;;;;13.38;5.60;;;17.80;81.30;;;;;;5111710;28;20047;-57
2022/06/04 09:50:18;;;;;;;18.83;6.60;;;17.50;80.20;;;;;;5098573;28;20023;-63
2022/06/04 09:52:45;;;;;;;19.48;5.93;;;17.40;85.50;;;;;;5102523;28;20099;-50
2022/06/04 09:55:21;;;;;;;19.73;6.38;;;17.30;82.60;;;;;;5111265;28;20024;-51
2022/06/04 09:58:16;;;;;;;17.98;6.05;;;17.20;84.70;;;;;;5111352;28;20038;-59
2022/06/04 10:00:52;;;;;;;18.30;5.97;;;17.70;85.70;;;;;;5111530;28;20026;-48
2022/06/04 10:03:19;;;;;;;17.38;5.40;;;17.80;85.40;;;;;;5110975;28;20076;-54
2022/06/04 10:06:01;;;;;;;17.15;6.63;;;18.00;83.00;;;;;;5111524;28;20488;-58
2022/06/04 10:08:29;;;;;;;17.08;5.85;;;18.00;84.20;;;;;;5111247;28;20080;-59
2022/06/04 10:11:04;;;;;;;16.55;6.35;;;17.80;79.60;;;;;;5111580;28;20024;-62
2022/06/04 10:13:45;;;;;;;21.17;6.20;;;17.70;82.70;;;;;;5094979;28;20035;-60
2022/06/04 10:16:27;;;;;;;19.27;6.15;;;17.50;80.20;;;;;;5099035;28;20065;-45
2022/06/04 10:18:55;;;;;;;22.63;6.38;;;17.60;83.60;;;;;;5111203;28;20082;-57
2022/06/04 10:21:25;;;;;;;19.58;6.20;;;18.50;83.90;;;;;;5111308;28;20015;-60
2022/06/04 10:23:55;;;;;;;19.45;5.53;;;19.00;80.00;;;;;;5107072;28;20029;-61
2022/06/04 10:26:42;;;;;;;20.77;5.80;;;19.10;75.00;;;;;;5111134;28;20019;-56
2022/06/04 10:29:42;;;;;;;19.10;5.78;;;19.40;73.20;;;;;;5107987;28;20035;-61
2022/06/04 10:32:20;;;;;;;14.63;5.55;;;19.20;74.30;;;;;;5099006;28;20116;-59
2022/06/04 10:35:08;;;;;;;12.77;4.97;;;19.50;74.60;;;;;;5101834;28;20101;-58
2022/06/04 10:37:57;;;;;;;21.23;6.07;;;19.90;74.30;;;;;;5093135;28;20409;-56
2022/06/04 10:41:02;;;;;;;17.60;5.47;;;20.10;70.80;;;;;;5095274;28;20039;-58
2022/06/04 10:43:45;;;;;;;18.27;5.22;;;20.80;73.20;;;;;;5101556;28;20032;-49
2022/06/04 10:46:41;;;;;;;15.70;5.28;;;20.60;68.20;;;;;;5096027;28;20119;-58
2022/06/04 10:49:13;;;;;;;17.17;5.28;;;20.40;72.10;;;;;;5084737;28;20545;-52
2022/06/04 10:51:46;;;;;;;14.98;6.18;;;20.60;74.00;;;;;;5096958;28;20100;-55
2022/06/04 10:54:41;;;;;;;12.80;5.28;;;21.40;75.30;;;;;;5097590;28;20028;-57
2022/06/04 10:57:27;;;;;;;17.55;5.05;;;21.90;74.10;;;;;;5097994;28;20477;-55
2022/06/04 11:00:09;;;;;;;13.73;5.35;;;22.10;66.20;;;;;;5107003;28;20062;-57
2022/06/04 11:02:40;;;;;;;18.92;5.28;;;21.70;65.90;;;;;;5106328;28;20036;-58
2022/06/04 11:05:12;;;;;;;13.68;5.25;;;21.40;68.20;;;;;;5101955;28;20046;-49
2022/06/04 11:07:52;;;;;;;17.25;5.90;;;20.90;67.30;;;;;;5093978;28;20024;-54
2022/06/04 11:10:22;;;;;;;16.02;5.50;;;20.50;67.50;;;;;;5082544;28;20020;-44
2022/06/04 11:13:11;;;;;;;15.65;5.35;;;20.60;73.00;;;;;;5101396;28;20024;-58
2022/06/04 11:15:49;;;;;;;20.95;6.68;;;20.00;69.80;;;;;;5102469;28;20082;-53
2022/06/04 11:18:35;;;;;;;13.88;6.10;;;20.30;70.00;;;;;;5094652;28;20036;-58
2022/06/04 11:21:32;;;;;;;16.90;5.82;;;20.40;73.20;;;;;;5093853;28;20016;-56
2022/06/04 11:24:03;;;;;;;17.98;5.65;;;20.40;71.00;;;;;;5095806;28;20393;-57
2022/06/04 11:26:37;;;;;;;14.90;5.32;;;20.90;69.50;;;;;;5102216;28;20028;-55
2022/06/04 11:29:04;;;;;;;16.55;5.13;;;20.90;71.40;;;;;;5092560;28;20036;-59
2022/06/04 11:31:47;;;;;;;16.63;5.78;;;20.90;67.40;;;;;;5079816;28;20082;-57
2022/06/04 11:34:43;;;;;;;14.88;5.72;;;20.20;68.00;;;;;;5102893;28;20093;-60
2022/06/04 11:37:23;;;;;;;17.60;5.60;;;20.30;71.80;;;;;;5096071;28;20035;-49
2022/06/04 11:39:55;;;;;;;13.80;5.53;;;20.10;72.00;;;;;;5093210;28;20047;-55
2022/06/04 11:42:41;;;;;;;20.60;5.78;;;19.60;72.30;;;;;;5092797;28;20476;-50
2022/06/04 11:45:22;;;;;;;12.45;5.15;;;19.50;69.90;;;;;;5093062;28;20109;-50
2022/06/04 11:48:09;;;;;;;14.07;5.57;;;19.70;71.60;;;;;;5092861;28;20012;-49
2022/06/04 11:50:53;;;;;;;11.27;5.35;;;19.70;71.10;;;;;;5091835;28;20491;-44
2022/06/04 11:53:37;;;;;;;13.85;5.60;;;20.20;73.60;;;;;;5096200;28;20024;-48
2022/06/04 11:56:16;;;;;;;17.27;5.80;;;19.80;68.60;;;;;;5080882;28;20442;-48
2022/06/04 11:58:52;;;;;;;13.53;5.37;;;19.30;71.60;;;;;;5103610;28;20039;-44
2022/06/04 12:01:29;;;;;;;16.42;5.55;;;19.20;76.10;;;;;;5089776;28;20015;-53
2022/06/04 12:04:16;;;;;;;13.38;4.72;;;19.40;74.10;;;;;;5113673;28;20387;-51
2022/06/04 12:06:56;;;;;;;12.93;5.28;;;19.60;73.40;;;;;;5113244;28;20567;-58
2022/06/04 12:09:50;;;;;;;14.60;5.40;;;19.60;72.20;;;;;;5113452;28;20560;-55
2022/06/04 12:12:29;;;;;;;12.10;5.95;;;19.50;71.70;;;;;;5053513;28;20115;-57
2022/06/04 12:14:54;;;;;;;18.40;5.60;;;19.40;73.00;;;;;;5102595;28;20027;-52
2022/06/04 12:17:28;;;;;;;12.27;5.50;;;19.20;71.70;;;;;;5111236;28;20418;-57
2022/06/04 12:25:42;;;;;;;15.35;5.00;;;19.60;76.80;;;;;;5111145;28;20161;-60
2022/06/04 12:28:27;;;;;;;13.32;5.53;;;19.70;71.70;;;;;;5112388;28;20499;-57
2022/06/04 12:30:53;;;;;;;16.48;5.38;;;19.90;72.40;;;;;;5102809;28;20027;-49
2022/06/04 12:33:33;;;;;;;14.40;4.93;;;20.20;71.00;;;;;;5108643;28;20020;-57
2022/06/04 12:36:04;;;;;;;10.60;4.97;;;20.50;68.40;;;;;;5101717;28;20468;-56
2022/06/04 12:38:32;;;;;;;11.13;5.03;;;20.50;67.80;;;;;;5103614;28;20477;-51
2022/06/04 12:41:07;;;;;;;15.70;4.82;;;21.00;72.30;;;;;;5102235;28;20031;-60
2022/06/04 12:43:37;;;;;;;17.45;4.95;;;21.00;70.10;;;;;;5101745;28;20399;-62
2022/06/04 12:46:31;;;;;;;12.10;4.70;;;21.10;69.60;;;;;;5097412;28;20024;-54
2022/06/04 12:49:11;;;;;;;16.98;5.78;;;21.00;69.10;;;;;;5080894;28;20448;-57
2022/06/04 12:52:01;;;;;;;18.13;5.30;;;20.20;66.10;;;;;;5093616;28;20024;-54
2022/06/04 12:54:30;;;;;;;;;;;20.20;68.60;;;;;;5107439;28;20081;-59
2022/06/04 12:57:07;;;;;;;13.10;5.20;;;20.40;68.70;;;;;;5104252;28;19995;-55
2022/06/04 12:59:38;;;;;;;14.82;5.45;;;20.50;68.40;;;;;;5104516;28;20042;-53
2022/06/04 13:02:36;;;;;;;16.80;5.95;;;20.40;68.90;;;;;;5107856;28;20024;-56
2022/06/04 13:05:22;;;;;;;19.20;5.25;;;20.30;71.00;;;;;;5102078;28;20038;-61
2022/06/04 13:07:59;;;;;;;13.63;4.90;;;20.50;67.90;;;;;;5090593;28;20027;-59
2022/06/04 13:10:38;;;;;;;18.67;5.85;;;20.60;69.90;;;;;;5089763;28;20020;-56
2022/06/04 13:13:32;;;;;;;17.33;5.55;;;21.00;72.00;;;;;;5091045;28;20099;-52
2022/06/04 13:16:03;;;;;;;13.13;5.43;;;21.10;69.80;;;;;;5096914;28;20032;-61
2022/06/04 13:18:33;;;;;;;9.32;4.95;;;21.00;67.20;;;;;;5111318;28;20467;-53
2022/06/04 13:21:04;;;;;;;15.10;5.75;;;20.80;69.60;;;;;;5109614;28;20104;-59
2022/06/04 13:23:32;;;;;;;19.33;5.13;;;20.90;68.40;;;;;;5103867;28;20035;-49